Time;durP1;ratioP1;P1;durP2;ratioP2;P2;SDS_P1;SDS_P2;PMS_P1;PMS_P2;Temp;Humidity;BMP_temperature;BMP_pressure;BME280_temperature;BME280_humidity;BME280_pressure;Samples;Min_cycle;Max_cycle;Signal;HPM_P1;HPM_P2
2021/11/08 00:01:01;;;;;;;32.60;16.20;;;;;;;8.46;71.63;99530.13;27241;1216;3026676;-70
2021/11/08 00:03:32;;;;;;;34.50;16.40;;;;;;;8.32;72.62;99532.41;27236;1218;3026342;-70
2021/11/08 00:06:04;;;;;;;37.30;19.40;;;;;;;8.15;73.28;99537.44;27327;1216;3027587;-71
2021/11/08 00:08:36;;;;;;;34.40;18.70;;;;;;;8.04;73.84;99525.56;27249;1216;3027110;-72
2021/11/08 00:11:05;;;;;;;28.80;15.80;;;;;;;7.93;74.52;99521.75;27236;1216;3026399;-71
2021/11/08 00:13:36;;;;;;;33.20;15.80;;;;;;;8.33;73.17;99509.12;27227;1216;3026079;-73
2021/11/08 00:22:15;;;;;;;34.40;17.10;;;;;;;8.44;72.69;99485.23;27219;1216;3054538;-72
2021/11/08 00:25:04;;;;;;;35.70;17.00;;;;;;;8.32;73.17;99485.81;27256;1219;3058792;-67
2021/11/08 00:27:41;;;;;;;35.10;18.80;;;;;;;8.10;73.75;99471.89;27222;1216;3052283;-69
2021/11/08 00:30:14;;;;;;;36.80;18.00;;;;;;;8.01;74.30;99476.35;27205;1216;3054805;-73
2021/11/08 00:32:45;;;;;;;30.30;16.70;;;;;;;7.90;75.08;99482.83;27194;1216;3029337;-72
2021/11/08 00:35:14;;;;;;;30.50;17.60;;;;;;;8.38;73.38;99471.89;27222;1216;3029695;-68
2021/11/08 00:37:44;;;;;;;32.80;16.80;;;;;;;8.73;72.20;99457.88;27233;1216;3026618;-76
2021/11/08 00:40:13;;;;;;;35.60;16.80;;;;;;;8.69;71.74;99459.14;27248;1216;3025952;-64
2021/11/08 00:42:43;;;;;;;34.60;17.80;;;;;;;8.52;72.63;99459.66;27211;1216;3069656;-64
2021/11/08 00:45:12;;;;;;;34.10;18.20;;;;;;;8.24;73.54;99451.27;27257;1216;3028315;-70
2021/11/08 00:47:41;;;;;;;36.10;18.30;;;;;;;8.18;74.30;99443.79;27230;1216;3027791;-70
2021/11/08 00:50:11;;;;;;;39.20;18.40;;;;;;;8.19;73.89;99439.86;27202;1216;3070329;-70
2021/11/08 00:52:40;;;;;;;30.80;16.60;;;;;;;8.07;74.85;99445.00;27250;1219;3025891;-69
2021/11/08 00:55:09;;;;;;;30.40;15.90;;;;;;;8.37;74.08;99441.22;27250;1216;3027923;-71
2021/11/08 00:57:40;;;;;;;33.00;17.40;;;;;;;8.74;72.60;99429.34;27248;1216;3067488;-67
2021/11/08 01:00:10;;;;;;;38.00;18.10;;;;;;;8.63;73.01;99425.41;27213;1216;3025928;-72
2021/11/08 01:02:42;;;;;;;30.10;16.60;;;;;;;8.60;73.03;99427.63;27221;1216;3025917;-70
2021/11/08 01:05:15;;;;;;;34.40;18.10;;;;;;;8.48;73.72;99426.87;27302;1216;3025168;-70
2021/11/08 01:07:44;;;;;;;40.10;18.50;;;;;;;8.33;74.41;99429.89;27230;1216;3026119;-75
2021/11/08 01:10:17;;;;;;;35.40;18.30;;;;;;;8.15;75.36;99432.95;27252;1216;3026351;-69
2021/11/08 01:12:47;;;;;;;30.10;15.80;;;;;;;8.18;75.85;99429.81;27241;1218;3053972;-70
2021/11/08 01:15:16;;;;;;;34.50;15.90;;;;;;;8.70;73.99;99420.69;27278;1216;3028080;-71
2021/11/08 01:17:45;;;;;;;30.30;16.60;;;;;;;8.82;73.25;99412.14;27238;1216;3048279;-67
2021/11/08 01:20:21;;;;;;;34.80;16.90;;;;;;;8.98;72.68;99404.64;27235;1216;3055485;-74
2021/11/08 01:22:50;;;;;;;34.80;16.20;;;;;;;8.84;73.39;99404.20;27231;1216;3026412;-73
2021/11/08 01:25:19;;;;;;;29.60;16.40;;;;;;;8.87;72.94;99396.17;27178;1219;3026560;-71
2021/11/08 01:27:53;;;;;;;33.50;17.20;;;;;;;8.61;73.93;99395.80;27216;1218;3026350;-68
2021/11/08 01:30:28;;;;;;;31.00;17.30;;;;;;;8.36;75.10;99400.78;27214;1216;3054634;-68
2021/11/08 01:33:06;;;;;;;26.70;12.20;;;;;;;8.42;75.08;99396.30;27218;1216;3051837;-71
2021/11/08 01:35:42;;;;;;;28.40;14.10;;;;;;;8.98;73.30;99394.01;27268;1216;3060289;-67
2021/11/08 01:39:01;;;;;;;26.10;14.10;;;;;;;9.25;72.27;99386.08;27229;1216;3049432;-68
2021/11/08 01:41:02;;;;;;;32.80;15.30;;;;;;;9.16;72.52;99384.45;27237;1216;3056147;-67
2021/11/08 01:43:32;;;;;;;27.20;14.30;;;;;;;9.06;72.82;99383.05;27192;1218;3026105;-73
2021/11/08 01:46:02;;;;;;;27.10;14.50;;;;;;;8.92;73.63;99387.67;27228;1216;3048941;-72
2021/11/08 01:48:32;;;;;;;26.30;16.00;;;;;;;8.88;73.85;99387.41;27263;1219;3026036;-69
2021/11/08 01:51:01;;;;;;;26.60;16.20;;;;;;;8.62;75.06;99398.89;27268;1216;3025921;-72
2021/11/08 01:53:30;;;;;;;22.50;12.80;;;;;;;8.46;76.29;99405.34;27230;1216;3026090;-71
2021/11/08 01:55:59;;;;;;;26.30;14.00;;;;;;;8.87;75.33;99400.00;27193;1216;3054054;-72
2021/11/08 01:58:29;;;;;;;24.40;13.20;;;;;;;9.25;74.67;99387.46;27226;1216;3027297;-67
2021/11/08 02:00:58;;;;;;;23.30;13.20;;;;;;;9.34;74.17;99383.46;27225;1216;3049176;-69
2021/11/08 02:03:27;;;;;;;21.90;13.80;;;;;;;9.10;75.50;99381.81;27214;1216;3026200;-69
2021/11/08 02:05:56;;;;;;;27.60;15.90;;;;;;;8.84;76.64;99379.41;27208;1216;3029184;-67
2021/11/08 02:08:27;;;;;;;26.50;15.40;;;;;;;8.58;78.02;99373.81;27210;1216;3048463;-71
2021/11/08 02:10:56;;;;;;;23.70;13.60;;;;;;;8.45;79.23;99376.92;27231;1218;3026942;-68
2021/11/08 02:13:25;;;;;;;31.70;16.50;;;;;;;8.65;78.78;99374.28;27244;1216;3026495;-68
2021/11/08 02:15:54;;;;;;;25.40;15.30;;;;;;;8.61;79.06;99369.48;27243;1216;3027599;-68
2021/11/08 02:18:37;;;;;;;27.10;16.40;;;;;;;8.71;78.84;99355.64;27212;1216;3055539;-67
2021/11/08 02:21:09;;;;;;;26.20;16.90;;;;;;;8.74;78.74;99345.52;27202;1216;3029026;-69
2021/11/08 02:23:40;;;;;;;29.50;16.70;;;;;;;8.45;80.23;99344.30;27244;1216;3027516;-68
2021/11/08 02:26:15;;;;;;;19.90;12.20;;;;;;;8.49;80.63;99340.44;27229;1216;3027898;-70
2021/11/08 02:28:47;;;;;;;27.00;13.60;;;;;;;8.92;79.60;99330.59;27200;1216;3051835;-66
2021/11/08 02:31:22;;;;;;;26.60;15.60;;;;;;;9.28;78.17;99330.79;27213;1216;3026570;-69
2021/11/08 02:33:52;;;;;;;31.90;16.00;;;;;;;9.22;78.01;99340.73;27289;1216;3057715;-66
2021/11/08 02:36:24;;;;;;;29.70;17.30;;;;;;;8.93;79.37;99347.64;27257;1216;3025984;-73
2021/11/08 02:38:55;;;;;;;33.70;18.50;;;;;;;8.83;79.94;99349.56;27274;1216;3028207;-71
2021/11/08 02:41:26;;;;;;;20.90;13.20;;;;;;;8.70;80.46;99350.13;27271;1216;3057737;-72
2021/11/08 02:43:57;;;;;;;35.30;14.60;;;;;;;8.97;79.98;99348.27;27235;1216;3027978;-69
2021/11/08 02:46:27;;;;;;;27.50;15.80;;;;;;;9.32;78.77;99337.75;27230;1216;3028443;-67
2021/11/08 02:48:58;;;;;;;37.10;17.70;;;;;;;9.00;79.34;99342.87;27272;1216;3026339;-68
2021/11/08 02:51:29;;;;;;;32.50;17.80;;;;;;;8.92;80.09;99345.92;27209;1216;3026594;-67
2021/11/08 02:54:10;;;;;;;32.20;18.30;;;;;;;8.74;80.70;99347.96;27263;1216;3026104;-73
2021/11/08 02:56:40;;;;;;;32.20;17.20;;;;;;;8.62;81.34;99347.61;27204;1216;3053384;-70
2021/11/08 02:59:10;;;;;;;33.30;16.50;;;;;;;8.90;80.80;99345.67;27231;1209;3026196;-66
2021/11/08 03:01:40;;;;;;;32.40;17.60;;;;;;;9.31;79.17;99332.56;27319;1216;3028541;-65
2021/11/08 03:04:15;;;;;;;39.10;19.40;;;;;;;9.16;79.46;99333.79;27203;1216;3025967;-65
2021/11/08 03:06:44;;;;;;;33.40;18.10;;;;;;;8.87;80.71;99334.86;27246;1216;3051563;-71
2021/11/08 03:09:20;;;;;;;36.60;20.20;;;;;;;8.81;81.09;99340.98;27262;1216;3026413;-70
2021/11/08 03:11:49;;;;;;;23.70;15.40;;;;;;;8.66;81.97;99341.44;27249;1216;3051976;-70
2021/11/08 03:14:20;;;;;;;30.70;16.30;;;;;;;8.84;82.23;99331.38;27199;1216;3028915;-72
2021/11/08 03:16:55;;;;;;;26.10;16.00;;;;;;;9.03;81.43;99323.66;27253;1216;3048277;-73
2021/11/08 03:21:55;;;;;;;26.40;16.30;;;;;;;8.77;82.86;99328.23;27245;1216;3026538;-75
2021/11/08 03:24:49;;;;;;;24.90;13.40;;;;;;;8.76;82.95;99325.03;27249;1216;3048850;-65
2021/11/08 03:27:50;;;;;;;23.40;12.60;;;;;;;9.30;81.55;99319.31;27238;1216;3051343;-71
2021/11/08 03:30:22;;;;;;;25.00;15.20;;;;;;;9.31;81.00;99319.42;27242;1216;3054489;-64
2021/11/08 03:32:52;;;;;;;24.50;15.50;;;;;;;9.33;80.89;99313.21;27231;1216;3026011;-69
2021/11/08 03:35:24;;;;;;;26.80;15.00;;;;;;;9.01;82.07;99317.81;27229;1216;3026452;-72
2021/11/08 03:37:54;;;;;;;24.20;14.80;;;;;;;8.72;83.81;99312.45;27242;1216;3028522;-72
2021/11/08 03:40:31;;;;;;;23.30;14.00;;;;;;;9.24;82.71;99311.09;27233;1216;3026073;-69
2021/11/08 03:43:01;;;;;;;27.00;15.10;;;;;;;9.32;81.95;99312.77;27246;1216;3070572;-73
2021/11/08 03:45:30;;;;;;;27.80;16.30;;;;;;;9.23;82.33;99308.55;27215;1216;3028126;-70
2021/11/08 03:48:00;;;;;;;22.30;15.10;;;;;;;9.03;83.55;99309.49;27218;1216;3027217;-62
2021/11/08 03:50:29;;;;;;;17.70;12.60;;;;;;;8.95;84.00;99314.30;27248;1216;3026260;-68
2021/11/08 03:52:59;;;;;;;20.90;12.80;;;;;;;9.17;83.43;99311.52;27220;1216;3026369;-71
2021/11/08 03:55:28;;;;;;;19.70;12.40;;;;;;;9.37;83.06;99315.81;27194;1208;3026040;-72
2021/11/08 03:57:57;;;;;;;24.20;14.40;;;;;;;9.49;82.12;99318.77;27256;1216;3054043;-71
2021/11/08 04:00:26;;;;;;;23.30;15.20;;;;;;;9.17;83.46;99323.02;27253;1216;3026511;-64
2021/11/08 04:02:58;;;;;;;19.80;12.10;;;;;;;8.97;84.54;99327.68;27181;1216;3055032;-74
2021/11/08 04:05:29;;;;;;;20.80;12.30;;;;;;;9.40;83.84;99319.09;27197;1216;3027310;-69
2021/11/08 04:08:00;;;;;;;17.20;10.30;;;;;;;9.48;82.90;99313.05;27213;1216;3026281;-72
2021/11/08 04:10:30;;;;;;;19.90;12.80;;;;;;;9.41;83.10;99324.66;27199;1216;3026873;-72
2021/11/08 04:13:08;;;;;;;20.80;12.80;;;;;;;9.25;84.02;99326.11;27226;1209;3026603;-68
2021/11/08 04:15:40;;;;;;;19.90;11.60;;;;;;;9.10;85.08;99321.48;27209;1216;3053388;-70
2021/11/08 04:18:13;;;;;;;21.40;12.10;;;;;;;9.39;84.32;99314.62;27245;1216;3027629;-70
2021/11/08 04:20:43;;;;;;;20.20;12.90;;;;;;;9.51;83.35;99318.32;27243;1216;3048157;-67
2021/11/08 04:23:32;;;;;;;21.90;12.70;;;;;;;9.47;83.67;99325.00;27243;1217;3055411;-69
2021/11/08 04:26:02;;;;;;;24.40;13.20;;;;;;;9.42;84.29;99314.48;27279;1219;3026219;-73
2021/11/08 04:28:31;;;;;;;15.50;10.10;;;;;;;9.35;84.55;99311.20;27254;1218;3052586;-70
2021/11/08 04:31:00;;;;;;;17.70;10.80;;;;;;;9.57;84.45;99306.61;27265;1218;3028408;-66
2021/11/08 04:33:44;;;;;;;14.90;10.10;;;;;;;9.79;83.18;99307.94;27234;1218;3069802;-73
2021/11/08 05:30:12;;;;;;;22.60;11.60;;;;;;;9.92;85.22;99305.91;27192;1216;3056469;-77
2021/11/08 05:32:43;;;;;;;18.80;10.50;;;;;;;9.99;85.21;99299.20;27209;1209;3025742;-71
2021/11/08 05:35:13;;;;;;;26.60;12.30;;;;;;;10.10;85.03;99293.41;27260;1216;3026973;-68
2021/11/08 05:37:44;;;;;;;24.30;13.10;;;;;;;10.11;84.97;99294.05;27309;1216;3026389;-77
2021/11/08 05:40:32;;;;;;;22.50;11.40;;;;;;;10.00;85.58;99298.61;27380;1216;3026324;-73
2021/11/08 05:43:03;;;;;;;17.60;11.60;;;;;;;9.82;86.43;99307.02;27282;1216;3048850;-70
2021/11/08 05:45:36;;;;;;;20.40;11.00;;;;;;;9.83;87.02;99297.88;27197;1216;3025723;-69
2021/11/08 05:48:05;;;;;;;27.10;12.30;;;;;;;10.20;85.56;99288.45;27305;1216;3026719;-76
2021/11/08 05:50:38;;;;;;;27.70;13.10;;;;;;;10.14;85.30;99279.02;27250;1216;3026854;-75
2021/11/08 05:53:10;;;;;;;19.90;11.40;;;;;;;9.95;86.23;99284.53;27224;1216;3026272;-73
2021/11/08 06:50:59;;;;;;;24.10;11.00;;;;;;;10.60;85.84;99276.89;27265;1216;3054124;-77
2021/11/08 06:53:30;;;;;;;19.40;11.30;;;;;;;11.09;84.49;99269.55;27241;1216;3025951;-67
2021/11/08 06:56:00;;;;;;;29.90;14.10;;;;;;;11.21;83.60;99266.08;27270;1216;3028146;-71
2021/11/08 06:58:30;;;;;;;35.10;13.70;;;;;;;11.04;84.42;99259.90;27301;1216;3025985;-65
2021/11/08 07:00:59;;;;;;;28.70;13.60;;;;;;;10.97;84.42;99252.63;27214;1216;3028159;-71
2021/11/08 07:03:28;;;;;;;23.40;11.30;;;;;;;10.78;85.56;99259.30;27259;1216;3028085;-72
2021/11/08 07:05:57;;;;;;;24.90;10.90;;;;;;;11.40;83.88;99248.92;27227;1216;3051927;-74
2021/11/08 07:08:25;;;;;;;22.20;11.50;;;;;;;11.17;83.89;99261.80;27326;1216;3026065;-71
2021/11/08 07:10:55;;;;;;;34.00;14.20;;;;;;;11.28;84.08;99264.55;27279;1216;3047900;-68
2021/11/08 07:13:24;;;;;;;24.30;11.10;;;;;;;11.07;84.47;99281.09;27290;1216;3026364;-68
2021/11/08 07:15:53;;;;;;;18.60;9.60;;;;;;;10.89;85.59;99296.73;27246;1216;3068544;-70
2021/11/08 07:18:21;;;;;;;16.30;9.30;;;;;;;11.27;84.92;99296.22;27281;1212;3026567;-77
2021/11/08 07:20:50;;;;;;;19.80;12.10;;;;;;;11.47;83.66;99298.98;27272;1216;3050464;-77
2021/11/08 07:23:20;;;;;;;22.20;12.50;;;;;;;11.26;83.99;99299.77;27243;1216;3026401;-75
2021/11/08 07:25:49;;;;;;;17.40;9.50;;;;;;;11.22;85.10;99304.27;27277;1216;3026512;-71
2021/11/08 07:28:18;;;;;;;19.40;9.80;;;;;;;11.53;83.93;99302.73;27228;1216;3050275;-72
2021/11/08 07:30:47;;;;;;;17.10;10.00;;;;;;;11.57;83.44;99303.17;27221;1216;3026064;-72
2021/11/08 07:33:17;;;;;;;22.80;12.10;;;;;;;11.32;84.40;99305.70;27268;1216;3054821;-72
2021/11/08 07:35:46;;;;;;;25.20;12.60;;;;;;;11.29;84.88;99306.23;27254;1218;3025783;-71
2021/11/08 07:38:15;;;;;;;21.30;9.60;;;;;;;11.22;85.36;99308.28;27286;1208;3026619;-69
2021/11/08 07:40:44;;;;;;;14.60;8.90;;;;;;;11.55;84.56;99298.79;27308;1218;3050793;-67
2021/11/08 07:43:13;;;;;;;16.70;10.00;;;;;;;12.02;82.44;99290.66;27292;1209;3026099;-71
2021/11/08 07:45:42;;;;;;;18.30;10.80;;;;;;;11.72;82.89;99281.10;27233;1218;3051619;-68
2021/11/08 07:48:11;;;;;;;22.10;10.10;;;;;;;11.35;84.52;99287.24;27294;1217;3025860;-74
2021/11/08 07:50:40;;;;;;;12.00;7.70;;;;;;;11.12;85.82;99288.79;27251;1208;3058600;-70
2021/11/08 07:53:10;;;;;;;15.00;9.10;;;;;;;11.52;85.02;99278.95;27306;1217;3026070;-65
2021/11/08 07:55:39;;;;;;;16.30;9.70;;;;;;;11.72;83.65;99281.81;27265;1218;3051729;-66
2021/11/08 07:58:08;;;;;;;17.90;10.80;;;;;;;11.67;83.80;99298.46;27300;1211;3025892;-66
2021/11/08 08:00:39;;;;;;;16.90;9.50;;;;;;;11.37;85.07;99294.34;27250;1218;3026734;-75
2021/11/08 08:03:10;;;;;;;11.90;7.40;;;;;;;11.59;84.21;99280.96;27328;1218;3027341;-74
2021/11/08 08:05:39;;;;;;;15.90;9.70;;;;;;;12.18;82.24;99285.70;27241;1217;3028863;-66
2021/11/08 08:08:09;;;;;;;18.40;10.80;;;;;;;12.09;82.19;99284.02;27194;1216;3026893;-68
2021/11/08 08:10:37;;;;;;;20.00;12.20;;;;;;;11.85;83.18;99290.42;27208;1218;3026418;-72
2021/11/08 08:13:06;;;;;;;18.10;11.60;;;;;;;11.67;83.97;99297.39;27236;1218;3052586;-79
2021/11/08 08:15:38;;;;;;;22.40;10.60;;;;;;;11.49;84.95;99294.73;27201;1217;3026276;-72
2021/11/08 08:18:07;;;;;;;18.50;9.50;;;;;;;11.85;84.39;99289.36;27319;1217;3026306;-69
2021/11/08 08:20:37;;;;;;;16.80;10.10;;;;;;;12.08;83.12;99294.30;27341;1218;3053187;-73
2021/11/08 08:23:06;;;;;;;19.60;11.10;;;;;;;11.94;83.47;99291.41;27275;1210;3028181;-72
2021/11/08 08:25:35;;;;;;;17.20;11.60;;;;;;;11.92;83.41;99292.73;27295;1217;3052281;-75
2021/11/08 08:28:05;;;;;;;14.40;8.30;;;;;;;11.96;83.71;99301.58;27434;1217;3026399;-74
2021/11/08 08:30:33;;;;;;;17.30;10.10;;;;;;;12.32;82.76;99301.80;27272;1218;3027387;-76
2021/11/08 08:33:18;;;;;;;19.40;12.00;;;;;;;12.37;82.12;99307.23;27274;1217;3055129;-67
2021/11/08 08:35:47;;;;;;;17.70;10.20;;;;;;;12.43;81.45;99299.45;27310;1218;3026326;-69
2021/11/08 08:38:17;;;;;;;18.80;11.00;;;;;;;12.15;82.59;99295.95;27239;1218;3048950;-69
2021/11/08 08:40:47;;;;;;;17.00;9.20;;;;;;;12.01;83.64;99292.98;27244;1217;3028795;-72
2021/11/08 08:43:17;;;;;;;16.80;9.60;;;;;;;12.54;81.61;99279.46;27276;1218;3030050;-66
2021/11/08 08:45:48;;;;;;;12.60;8.00;;;;;;;12.48;81.51;99275.88;27251;1218;3025981;-70
2021/11/08 08:48:17;;;;;;;19.10;10.80;;;;;;;12.39;82.04;99271.21;27237;1217;3028595;-69
2021/11/08 08:50:46;;;;;;;16.10;10.20;;;;;;;12.04;83.48;99260.13;27234;1217;3050500;-73
2021/11/08 08:53:16;;;;;;;13.70;8.50;;;;;;;12.12;83.59;99256.13;27263;1218;3026903;-72
2021/11/08 08:55:45;;;;;;;14.90;8.20;;;;;;;12.50;82.59;99254.63;27282;1209;3025868;-73
2021/11/08 08:58:14;;;;;;;16.10;9.20;;;;;;;12.62;81.24;99264.02;27263;1217;3026540;-65
2021/11/08 09:00:47;;;;;;;19.20;10.70;;;;;;;12.62;81.06;99243.20;27248;1217;3025990;-70
2021/11/08 09:03:16;;;;;;;21.90;11.00;;;;;;;12.55;81.52;99245.32;27275;1217;3049661;-71
2021/11/08 09:05:46;;;;;;;19.30;8.80;;;;;;;12.47;82.25;99248.38;27309;1218;3027685;-75
2021/11/08 09:08:15;;;;;;;16.10;10.10;;;;;;;12.75;81.20;99248.64;27315;1217;3068470;-76
2021/11/08 09:10:44;;;;;;;15.40;9.20;;;;;;;13.04;79.80;99261.09;27246;1218;3026294;-70
2021/11/08 09:13:14;;;;;;;23.00;11.00;;;;;;;13.05;79.28;99258.42;27257;1218;3054419;-70
2021/11/08 09:15:43;;;;;;;19.30;10.60;;;;;;;12.79;80.25;99262.80;27257;1209;3025945;-67
2021/11/08 09:18:15;;;;;;;14.90;6.80;;;;;;;12.58;81.25;99267.38;27248;1218;3026254;-70
2021/11/08 09:20:45;;;;;;;13.00;7.80;;;;;;;13.00;80.40;99266.11;27277;1218;3026799;-68
2021/11/08 09:23:14;;;;;;;16.00;9.50;;;;;;;13.11;79.58;99264.82;27320;1218;3026561;-75
2021/11/08 09:25:43;;;;;;;16.20;11.00;;;;;;;13.07;78.85;99263.65;27273;1217;3028126;-73
2021/11/08 09:28:13;;;;;;;16.20;9.20;;;;;;;12.67;80.69;99274.83;27300;1218;3052366;-67
2021/11/08 09:30:44;;;;;;;12.70;7.60;;;;;;;12.71;80.19;99271.41;27296;1217;3026298;-71
2021/11/08 09:33:13;;;;;;;16.30;9.30;;;;;;;12.97;80.06;99262.69;27363;1217;3025655;-63
2021/11/08 09:35:49;;;;;;;18.30;11.40;;;;;;;13.20;78.91;99256.23;27370;1217;3025949;-69
2021/11/08 09:38:20;;;;;;;20.00;11.60;;;;;;;13.11;78.74;99267.27;27383;1217;3052602;-67
2021/11/08 09:40:49;;;;;;;20.60;12.50;;;;;;;12.85;79.97;99259.85;27386;1217;3025968;-66
2021/11/08 09:43:23;;;;;;;20.10;10.80;;;;;;;12.90;80.00;99249.83;27362;1217;3025930;-67
2021/11/08 09:45:52;;;;;;;22.00;10.80;;;;;;;13.13;79.75;99243.38;27399;1218;3054736;-69
2021/11/08 09:48:21;;;;;;;22.10;12.00;;;;;;;13.00;79.61;99242.02;27411;1218;3026068;-75
2021/11/08 09:50:50;;;;;;;28.40;14.10;;;;;;;12.98;79.72;99252.42;27278;1218;3026358;-71
2021/11/08 09:53:19;;;;;;;18.90;7.60;;;;;;;12.55;81.68;99263.45;27252;1216;3052401;-72
2021/11/08 09:55:48;;;;;;;24.20;12.50;;;;;;;12.82;80.99;99266.77;27331;1209;3026492;-72
2021/11/08 09:58:17;;;;;;;31.50;17.80;;;;;;;13.27;79.67;99269.64;27238;1208;3048913;-70
2021/11/08 10:00:52;;;;;;;32.90;19.90;;;;;;;13.23;78.80;99277.25;27267;1217;3026499;-73
2021/11/08 10:03:24;;;;;;;34.00;17.00;;;;;;;13.01;79.25;99267.27;27266;1217;3051111;-71
2021/11/08 10:05:56;;;;;;;25.30;14.40;;;;;;;12.78;80.53;99261.71;27281;1216;3026579;-72
2021/11/08 10:08:31;;;;;;;26.70;14.40;;;;;;;13.27;79.34;99259.36;27290;1218;3026085;-72
2021/11/08 10:11:13;;;;;;;32.00;17.20;;;;;;;13.44;78.31;99246.57;27280;1217;3052001;-69
2021/11/08 10:13:42;;;;;;;32.50;16.70;;;;;;;13.16;79.00;99265.44;27237;1217;3053528;-68
2021/11/08 10:16:33;;;;;;;28.60;15.40;;;;;;;12.87;79.83;99261.65;27249;1218;3058701;-71
2021/11/08 10:19:05;;;;;;;20.40;11.00;;;;;;;12.66;80.72;99264.02;27261;1217;3026066;-71
2021/11/08 10:21:49;;;;;;;22.00;11.70;;;;;;;12.91;80.13;99240.22;27285;1218;3026623;-73
2021/11/08 10:24:39;;;;;;;27.80;14.20;;;;;;;13.05;79.07;99248.35;27239;1217;3050754;-73
2021/11/08 10:27:10;;;;;;;27.90;14.70;;;;;;;13.07;78.89;99240.48;27222;1217;3068490;-65
2021/11/08 10:29:46;;;;;;;19.80;12.10;;;;;;;12.89;79.30;99259.23;27272;1217;3026325;-67
2021/11/08 10:32:16;;;;;;;16.80;8.30;;;;;;;13.04;79.44;99243.33;27287;1218;3051554;-71
2021/11/08 10:34:57;;;;;;;17.90;9.70;;;;;;;13.75;76.43;99242.40;27322;1218;3025971;-72
2021/11/08 10:37:30;;;;;;;22.10;12.60;;;;;;;13.64;76.23;99244.14;27232;1218;3056592;-70
2021/11/08 10:40:00;;;;;;;27.00;13.60;;;;;;;13.21;78.36;99250.86;27233;1217;3026923;-70
2021/11/08 10:42:30;;;;;;;27.10;12.00;;;;;;;12.93;79.23;99238.86;27168;1218;3026022;-73
2021/11/08 10:44:59;;;;;;;22.70;11.20;;;;;;;12.91;79.40;99248.88;27200;1217;3027023;-77
2021/11/08 10:47:28;;;;;;;24.10;11.30;;;;;;;13.37;78.47;99252.66;27243;1218;3025845;-68
2021/11/08 10:49:58;;;;;;;19.50;11.30;;;;;;;13.60;77.27;99249.88;27253;1218;3027307;-69
2021/11/08 10:52:29;;;;;;;30.50;14.30;;;;;;;13.52;77.20;99246.42;27304;1218;3026949;-77
2021/11/08 10:55:00;;;;;;;21.60;10.50;;;;;;;13.15;78.77;99252.70;27273;1217;3067218;-72
2021/11/08 10:57:30;;;;;;;22.50;11.00;;;;;;;13.12;78.70;99252.75;27314;1218;3028054;-72
2021/11/08 11:00:00;;;;;;;20.30;10.80;;;;;;;13.45;78.48;99271.95;27270;1217;3025595;-73
2021/11/08 11:02:31;;;;;;;23.40;13.30;;;;;;;13.77;76.56;99255.46;27255;1217;3027300;-75
2021/11/08 11:05:14;;;;;;;17.70;9.00;;;;;;;13.58;76.90;99257.28;27226;1216;3028098;-71
2021/11/08 11:07:43;;;;;;;22.00;9.90;;;;;;;13.31;77.58;99254.23;27211;1218;3049465;-78
2021/11/08 11:10:15;;;;;;;16.30;9.90;;;;;;;12.99;79.39;99253.89;27273;1217;3026317;-80
2021/11/08 11:12:46;;;;;;;21.10;11.00;;;;;;;13.37;78.42;99252.31;27265;1217;3056642;-78
2021/11/08 11:15:16;;;;;;;25.80;12.50;;;;;;;13.36;78.18;99244.81;27264;1218;3028512;-76
2021/11/08 11:17:50;;;;;;;16.50;10.20;;;;;;;13.30;78.48;99251.63;27265;1217;3026650;-71
2021/11/08 11:20:21;;;;;;;;;;;;;;;13.22;78.11;99260.33;27285;1218;3049601;-75
2021/11/08 11:23:05;;;;;;;19.80;9.70;;;;;;;12.93;79.28;99249.27;27236;1210;3026226;-75
2021/11/08 11:25:36;;;;;;;;;;;;;;;12.95;79.68;99247.66;27263;1218;3051145;-70
2021/11/08 11:28:07;;;;;;;14.00;7.70;;;;;;;13.42;78.20;99236.10;27241;1218;3027199;-72
2021/11/08 11:30:43;;;;;;;17.40;9.50;;;;;;;13.53;77.32;99234.29;27311;1218;3026369;-68
2021/11/08 11:33:20;;;;;;;21.20;10.70;;;;;;;13.37;77.45;99251.63;27257;1218;3058786;-73
2021/11/08 11:35:50;;;;;;;22.10;9.80;;;;;;;13.16;77.92;99246.69;27271;1218;3051600;-72
2021/11/08 11:38:20;;;;;;;17.60;9.20;;;;;;;13.13;78.93;99249.73;27278;1208;3025996;-75
2021/11/08 11:40:58;;;;;;;23.80;11.00;;;;;;;13.84;76.45;99247.49;27333;1218;3026353;-71
2021/11/08 11:43:58;;;;;;;24.70;12.90;;;;;;;13.58;76.78;99246.90;27227;1216;3069528;-71
2021/11/08 11:46:30;;;;;;;27.10;13.40;;;;;;;13.54;76.70;99255.63;27226;1218;3048590;-76
2021/11/08 11:49:02;;;;;;;20.20;12.20;;;;;;;13.30;77.28;99262.88;27263;1217;3026514;-73
2021/11/08 11:51:43;;;;;;;21.30;11.40;;;;;;;13.09;78.32;99266.00;27275;1218;3028358;-70
2021/11/08 11:54:13;;;;;;;21.60;13.10;;;;;;;13.49;77.37;99267.10;27268;1218;3058832;-71
2021/11/08 11:56:44;;;;;;;28.60;15.30;;;;;;;13.84;76.30;99270.75;27285;1218;3027343;-75
2021/11/08 11:59:14;;;;;;;24.40;13.40;;;;;;;13.39;77.18;99277.68;27358;1217;3028483;-76
2021/11/08 12:01:45;;;;;;;31.40;18.80;;;;;;;13.18;77.30;99297.30;27276;1218;3026732;-70
2021/11/08 12:04:14;;;;;;;27.70;14.10;;;;;;;13.02;78.42;99291.11;27271;1218;3026065;-79
2021/11/08 12:06:45;;;;;;;32.40;15.40;;;;;;;13.55;76.88;99278.56;27252;1218;3026055;-78
2021/11/08 12:09:16;;;;;;;27.10;14.30;;;;;;;13.77;75.75;99267.83;27273;1217;3050195;-75
2021/11/08 12:11:49;;;;;;;32.50;17.80;;;;;;;13.58;76.11;99284.35;27240;1217;3070393;-73
2021/11/08 12:14:27;;;;;;;25.20;13.70;;;;;;;13.25;77.23;99286.08;27288;1217;3026328;-70
2021/11/08 12:17:12;;;;;;;21.70;12.70;;;;;;;12.93;78.52;99274.73;27329;1217;3052085;-72
2021/11/08 12:19:44;;;;;;;31.00;12.50;;;;;;;13.41;77.47;99281.60;27230;1217;3054503;-72
2021/11/08 12:22:13;;;;;;;29.30;13.30;;;;;;;13.71;75.57;99278.80;27281;1217;3028099;-70
2021/11/08 12:24:54;;;;;;;29.80;13.80;;;;;;;13.43;75.83;99295.37;27217;1218;3026093;-69
2021/11/08 12:27:34;;;;;;;22.80;12.60;;;;;;;13.28;75.99;99286.27;27234;1217;3054773;-75
2021/11/08 12:30:12;;;;;;;20.80;10.50;;;;;;;13.13;76.82;99285.73;27324;1217;3055595;-73
2021/11/08 12:32:51;;;;;;;24.40;11.90;;;;;;;13.68;75.74;99269.55;27294;1217;3048371;-78
2021/11/08 12:35:30;;;;;;;30.20;13.40;;;;;;;13.89;74.43;99265.84;27279;1218;3053682;-75
2021/11/08 12:37:59;;;;;;;21.50;12.80;;;;;;;13.70;74.41;99261.31;27253;1218;3050686;-79
2021/11/08 12:40:32;;;;;;;24.30;13.30;;;;;;;13.49;74.99;99276.11;27260;1217;3028026;-72
2021/11/08 12:43:01;;;;;;;23.90;12.40;;;;;;;13.29;75.74;99277.72;27279;1218;3030891;-69
2021/11/08 12:45:37;;;;;;;32.80;12.70;;;;;;;13.03;77.11;99283.49;27290;1217;3029127;-68
2021/11/08 12:48:09;;;;;;;22.50;10.20;;;;;;;13.72;75.31;99268.66;27268;1217;3071216;-73
2021/11/08 12:50:44;;;;;;;21.40;11.20;;;;;;;14.25;73.10;99264.80;27235;1218;3026616;-75
2021/11/08 12:53:24;;;;;;;26.90;13.10;;;;;;;14.20;73.04;99272.17;27252;1217;3054247;-73
2021/11/08 12:55:54;;;;;;;25.40;13.60;;;;;;;13.83;73.76;99272.95;27265;1217;3052505;-69
2021/11/08 12:58:43;;;;;;;28.30;13.90;;;;;;;13.47;75.16;99261.10;27245;1218;3026451;-74
2021/11/08 13:01:18;;;;;;;23.70;12.90;;;;;;;13.32;75.03;99265.70;27251;1217;3049282;-67
2021/11/08 13:03:50;;;;;;;15.40;9.90;;;;;;;13.11;76.70;99263.77;27240;1218;3052436;-77
2021/11/08 13:06:31;;;;;;;24.60;11.40;;;;;;;13.77;75.39;99261.45;27288;1218;3026334;-68
2021/11/08 13:09:15;;;;;;;23.60;13.40;;;;;;;14.11;73.25;99276.45;27240;1218;3068368;-70
2021/11/08 13:11:46;;;;;;;24.50;13.20;;;;;;;14.19;73.10;99278.48;27249;1218;3048578;-73
2021/11/08 13:14:35;;;;;;;22.40;12.50;;;;;;;13.91;73.26;99283.94;27265;1208;3025785;-69
2021/11/08 13:17:06;;;;;;;25.40;13.80;;;;;;;13.58;74.18;99286.27;27216;1218;3055199;-70
2021/11/08 13:19:52;;;;;;;24.40;14.60;;;;;;;13.28;75.39;99289.07;27265;1217;3027340;-76
2021/11/08 13:22:26;;;;;;;20.40;11.50;;;;;;;13.18;75.65;99288.92;27230;1217;3050432;-66
2021/11/08 13:25:05;;;;;;;19.10;10.50;;;;;;;13.62;74.82;99301.52;27226;1217;3053113;-75
2021/11/08 13:27:36;;;;;;;27.80;14.50;;;;;;;14.04;72.91;99301.42;27230;1217;3053398;-73